Terminal Aerodrome Forecast
Issued by NWS

Home | Current Version | Previous Version | Text Only | Print | Product List | Glossary On
Versions: 1 2 3 4 5 6 7 8 9 10 11 12 13 14 15 16 17 18 19 20 21 22 23 24 25 26 27
351
FTUS43 KDDC 012320
TAFHYS
TAF
KHYS 012320Z 0200/0224 36014KT P6SM OVC022
     FM020200 01008KT P6SM OVC050
     FM020700 33006KT P6SM OVC070
     FM021400 33007KT P6SM SCT200=

USA.gov is the U.S. government's official web portal to all federal, state and local government web resources and services.